createdAt,value
2019-02-27T00:00:48.006Z,1032.66
2019-02-27T00:01:57.449Z,1032.67
2019-02-27T00:03:07.413Z,1032.68
2019-02-27T00:04:17.351Z,1032.68
2019-02-27T00:05:26.798Z,1032.65
2019-02-27T00:06:36.042Z,1032.67
2019-02-27T00:07:47.981Z,1032.7
2019-02-27T00:09:01.257Z,1032.66
2019-02-27T00:10:10.939Z,1032.62
2019-02-27T00:11:20.631Z,1032.62
2019-02-27T00:12:30.566Z,1032.62
2019-02-27T00:13:40.257Z,1032.59
2019-02-27T00:14:49.945Z,1032.59
2019-02-27T00:15:59.378Z,1032.58
2019-02-27T00:17:11.555Z,1032.6
2019-02-27T00:18:24.985Z,1032.57
2019-02-27T00:19:34.683Z,1032.56
2019-02-27T00:20:44.373Z,1032.55
2019-02-27T00:21:54.071Z,1032.5
2019-02-27T00:23:03.778Z,1032.45
2019-02-27T00:24:13.470Z,1032.46
2019-02-27T00:25:22.906Z,1032.48
2019-02-27T00:26:36.501Z,1032.46
2019-02-27T00:27:49.955Z,1032.48
2019-02-27T00:28:59.956Z,1032.5
2019-02-27T00:30:09.919Z,1032.47
2019-02-27T00:31:19.880Z,1032.48
2019-02-27T00:32:29.579Z,1032.46
2019-02-27T00:33:39.525Z,1032.48
2019-02-27T00:34:49.215Z,1032.44
2019-02-27T00:35:58.663Z,1032.41
2019-02-27T00:37:12.644Z,1032.37
2019-02-27T00:38:26.475Z,1032.38
2019-02-27T00:39:35.685Z,1032.39
2019-02-27T00:40:45.382Z,1032.36
2019-02-27T00:41:54.813Z,1032.3
2019-02-27T00:43:04.751Z,1032.27
2019-02-27T00:44:14.683Z,1032.25
2019-02-27T00:45:24.376Z,1032.23
2019-02-27T00:46:34.316Z,1032.19
2019-02-27T00:47:52.762Z,1032.16
2019-02-27T00:49:02.965Z,1032.16
2019-02-27T00:50:12.902Z,1032.14
2019-02-27T00:51:22.624Z,1032.14
2019-02-27T00:52:32.560Z,1032.13
2019-02-27T00:53:42.245Z,1032.11
2019-02-27T00:54:52.194Z,1032.06
2019-02-27T00:56:04.959Z,1032.1
2019-02-27T00:57:20.415Z,1032.04
2019-02-27T00:58:30.457Z,1032.04
2019-02-27T00:59:40.145Z,1032.03
2019-02-27T01:00:49.339Z,1032.01
2019-02-27T01:01:58.782Z,1031.98
2019-02-27T01:03:08.716Z,1031.96
2019-02-27T01:04:17.912Z,1031.95
2019-02-27T01:05:27.606Z,1031.97
2019-02-27T01:06:41.557Z,1031.95
2019-02-27T01:07:54.740Z,1031.94
2019-02-27T01:09:06.346Z,1031.93
2019-02-27T01:10:16.191Z,1031.92
2019-02-27T01:11:25.918Z,1031.92
2019-02-27T01:12:35.616Z,1031.85
2019-02-27T01:13:45.049Z,1031.9
2019-02-27T01:14:54.989Z,1031.86
2019-02-27T01:16:04.695Z,1031.81
2019-02-27T01:17:17.593Z,1031.86
2019-02-27T01:18:31.425Z,1031.84
2019-02-27T01:19:42.642Z,1031.78
2019-02-27T01:20:52.834Z,1031.77
2019-02-27T01:22:02.771Z,1031.78
2019-02-27T01:23:12.718Z,1031.76
2019-02-27T01:24:22.393Z,1031.7
2019-02-27T01:25:32.075Z,1031.65
2019-02-27T01:26:42.004Z,1031.63
2019-02-27T01:27:51.433Z,1031.61
2019-02-27T01:29:02.139Z,1031.67
2019-02-27T01:30:11.835Z,1031.68
2019-02-27T01:31:24.728Z,1031.65
2019-02-27T01:32:34.426Z,1031.64
2019-02-27T01:33:44.356Z,1031.6
2019-02-27T01:34:54.070Z,1031.55
2019-02-27T01:36:04.016Z,1031.54
2019-02-27T01:37:13.953Z,1031.53
2019-02-27T01:38:23.640Z,1031.52
2019-02-27T01:39:33.066Z,1031.52
2019-02-27T01:40:46.274Z,1031.48
2019-02-27T01:41:58.729Z,1031.45
2019-02-27T01:43:08.423Z,1031.43
2019-02-27T01:44:18.385Z,1031.49
2019-02-27T01:45:28.084Z,1031.42
2019-02-27T01:46:37.779Z,1031.47
2019-02-27T01:47:47.722Z,1031.46
2019-02-27T01:48:57.655Z,1031.42
2019-02-27T01:50:07.362Z,1031.43
2019-02-27T01:51:16.795Z,1031.4
2019-02-27T01:52:33.909Z,1031.42
2019-02-27T01:53:44.038Z,1031.42
2019-02-27T01:54:54.004Z,1031.42
2019-02-27T01:56:03.951Z,1031.42
2019-02-27T01:57:13.897Z,1031.38
2019-02-27T01:58:23.584Z,1031.38
2019-02-27T01:59:33.279Z,1031.34
2019-02-27T02:00:42.735Z,1031.33
2019-02-27T02:01:56.423Z,1031.28
2019-02-27T02:03:11.122Z,1031.31
2019-02-27T02:04:23.314Z,1031.29
2019-02-27T02:05:32.250Z,1031.22
2019-02-27T02:06:42.180Z,1031.26
2019-02-27T02:07:51.393Z,1031.22
2019-02-27T02:09:00.827Z,1031.21
2019-02-27T02:10:10.514Z,1031.17
2019-02-27T02:11:19.948Z,1031.13
2019-02-27T02:12:29.888Z,1031.19
2019-02-27T02:13:47.981Z,1031.19
2019-02-27T02:14:57.970Z,1031.11
2019-02-27T02:16:07.710Z,1031.08
2019-02-27T02:17:17.398Z,1031.07
2019-02-27T02:18:26.591Z,1031.04
2019-02-27T02:19:36.290Z,1031.01
2019-02-27T02:20:46.233Z,1031
2019-02-27T02:21:55.922Z,1030.94
2019-02-27T02:23:08.791Z,1030.96
2019-02-27T02:24:21.681Z,1030.91
2019-02-27T02:25:31.149Z,1030.92
2019-02-27T02:26:41.083Z,1030.9
2019-02-27T02:27:51.018Z,1030.88
2019-02-27T02:29:00.708Z,1030.89
2019-02-27T02:30:10.200Z,1030.89
2019-02-27T02:31:20.171Z,1030.84
2019-02-27T02:32:30.149Z,1030.78
2019-02-27T02:33:39.589Z,1030.75
2019-02-27T02:34:49.549Z,1030.74
2019-02-27T02:35:58.999Z,1030.72
2019-02-27T02:37:08.475Z,1030.65
2019-02-27T02:38:18.474Z,1030.65
2019-02-27T02:39:28.182Z,1030.62
2019-02-27T02:40:37.873Z,1030.64
2019-02-27T02:41:48.263Z,1030.65
2019-02-27T02:42:59.055Z,1030.63
2019-02-27T02:44:11.946Z,1030.6
2019-02-27T02:45:26.151Z,1030.6
2019-02-27T02:46:44.721Z,1030.56
2019-02-27T02:47:55.781Z,1030.57
2019-02-27T02:49:08.232Z,1030.56
2019-02-27T02:50:18.465Z,1030.57
2019-02-27T02:51:29.797Z,1030.53
2019-02-27T02:52:40.708Z,1030.51
2019-02-27T02:53:51.539Z,1030.51
2019-02-27T02:55:11.857Z,1030.46
2019-02-27T02:56:24.725Z,1030.43
2019-02-27T02:57:36.181Z,1030.47
2019-02-27T02:58:48.249Z,1030.44
2019-02-27T02:59:59.852Z,1030.44
2019-02-27T03:01:13.872Z,1030.4
2019-02-27T03:02:24.684Z,1030.44
2019-02-27T03:03:37.417Z,1030.41
2019-02-27T03:04:48.187Z,1030.39
2019-02-27T03:06:00.000Z,1030.42
2019-02-27T03:07:10.971Z,1030.37
2019-02-27T03:08:21.135Z,1030.34
2019-02-27T03:09:31.696Z,1030.3
2019-02-27T03:10:42.775Z,1030.29
2019-02-27T03:11:54.564Z,1030.21
2019-02-27T03:13:07.020Z,1030.21
2019-02-27T03:14:18.365Z,1030.22
2019-02-27T03:15:29.563Z,1030.23
2019-02-27T03:16:41.361Z,1030.19
2019-02-27T03:17:54.691Z,1030.21
2019-02-27T03:19:06.129Z,1030.2
2019-02-27T03:20:17.589Z,1030.14
2019-02-27T03:21:28.768Z,1030.14
2019-02-27T03:22:41.491Z,1030.09
2019-02-27T03:23:52.493Z,1030.04
2019-02-27T03:25:04.012Z,1030.02
2019-02-27T03:26:16.751Z,1030.01
2019-02-27T03:27:30.494Z,1030.03
2019-02-27T03:28:41.695Z,1029.99
2019-02-27T03:29:53.337Z,1030
2019-02-27T03:31:03.321Z,1029.95
2019-02-27T03:32:24.670Z,1029.95
2019-02-27T03:33:44.534Z,1029.91
2019-02-27T03:34:54.531Z,1029.92
2019-02-27T03:36:04.395Z,1029.91
2019-02-27T03:37:14.462Z,1029.89
2019-02-27T03:38:24.810Z,1029.86
2019-02-27T03:39:35.785Z,1029.9
2019-02-27T03:40:48.094Z,1029.85
2019-02-27T03:41:59.292Z,1029.83
2019-02-27T03:43:10.390Z,1029.86
2019-02-27T03:44:21.640Z,1029.84
2019-02-27T03:45:31.857Z,1029.89
2019-02-27T03:46:42.016Z,1029.9
2019-02-27T03:47:52.764Z,1029.83
2019-02-27T03:49:03.536Z,1029.81
2019-02-27T03:50:15.570Z,1029.82
2019-02-27T03:51:25.412Z,1029.79
2019-02-27T03:52:36.305Z,1029.76
2019-02-27T03:53:47.201Z,1029.77
2019-02-27T03:54:58.290Z,1029.78
2019-02-27T03:56:09.697Z,1029.74
2019-02-27T03:57:20.394Z,1029.74
2019-02-27T03:58:31.445Z,1029.75
2019-02-27T03:59:42.420Z,1029.72
2019-02-27T04:00:54.083Z,1029.72
2019-02-27T04:02:06.076Z,1029.7
2019-02-27T04:03:18.074Z,1029.72
2019-02-27T04:04:30.529Z,1029.71
2019-02-27T04:05:41.514Z,1029.71
2019-02-27T04:06:56.241Z,1029.69
2019-02-27T04:08:08.241Z,1029.67
2019-02-27T04:09:19.791Z,1029.73
2019-02-27T04:10:31.226Z,1029.72
2019-02-27T04:11:42.780Z,1029.71
2019-02-27T04:12:52.431Z,1029.69
2019-02-27T04:14:04.626Z,1029.74
2019-02-27T04:15:17.962Z,1029.74
2019-02-27T04:16:30.108Z,1029.74
2019-02-27T04:17:43.269Z,1029.68
2019-02-27T04:19:02.668Z,1029.75
2019-02-27T04:20:15.440Z,1029.71
2019-02-27T04:21:26.073Z,1029.74
2019-02-27T04:22:37.451Z,1029.75
2019-02-27T04:23:48.935Z,1029.75
2019-02-27T04:24:58.955Z,1029.73
2019-02-27T04:26:08.410Z,1029.78
2019-02-27T04:27:21.146Z,1029.74
2019-02-27T04:28:31.315Z,1029.75
2019-02-27T04:29:41.847Z,1029.73
2019-02-27T04:30:52.053Z,1029.75
2019-02-27T04:32:02.093Z,1029.73
2019-02-27T04:33:22.820Z,1029.76
2019-02-27T04:34:33.688Z,1029.77
2019-02-27T04:35:43.720Z,1029.75
2019-02-27T04:36:52.907Z,1029.74
2019-02-27T04:38:02.603Z,1029.71
2019-02-27T04:39:11.787Z,1029.72
2019-02-27T04:40:21.221Z,1029.67
2019-02-27T04:41:31.155Z,1029.68
2019-02-27T04:42:41.088Z,1029.66
2019-02-27T04:43:50.523Z,1029.6
2019-02-27T04:45:00.281Z,1029.64
2019-02-27T04:46:14.861Z,1029.6
2019-02-27T04:47:29.727Z,1029.59
2019-02-27T04:48:39.717Z,1029.57
2019-02-27T04:49:49.411Z,1029.59
2019-02-27T04:50:59.350Z,1029.58
2019-02-27T04:52:09.296Z,1029.57
2019-02-27T04:53:19.233Z,1029.63
2019-02-27T04:54:35.062Z,1029.59
2019-02-27T04:55:50.524Z,1029.61
2019-02-27T04:57:00.284Z,1029.59
2019-02-27T04:58:09.969Z,1029.6
2019-02-27T04:59:19.658Z,1029.6
2019-02-27T05:00:29.356Z,1029.56
2019-02-27T05:01:38.556Z,1029.61
2019-02-27T05:02:50.414Z,1029.57
2019-02-27T05:04:02.981Z,1029.54
2019-02-27T05:05:12.660Z,1029.54
2019-02-27T05:06:22.087Z,1029.52
2019-02-27T05:07:31.526Z,1029.54
2019-02-27T05:08:41.510Z,1029.53
2019-02-27T05:09:50.950Z,1029.54
2019-02-27T05:11:00.750Z,1029.5
2019-02-27T05:12:14.745Z,1029.53
2019-02-27T05:13:23.941Z,1029.48
2019-02-27T05:14:35.081Z,1029.51
2019-02-27T05:15:45.022Z,1029.51
2019-02-27T05:16:54.729Z,1029.5
2019-02-27T05:18:04.953Z,1029.5
2019-02-27T05:19:15.298Z,1029.53
2019-02-27T05:20:25.030Z,1029.52
2019-02-27T05:21:34.461Z,1029.51
2019-02-27T05:22:43.896Z,1029.48
2019-02-27T05:23:53.357Z,1029.48
2019-02-27T05:25:07.829Z,1029.45
2019-02-27T05:26:20.358Z,1029.42
2019-02-27T05:27:34.755Z,1029.39
2019-02-27T05:28:44.190Z,1029.37
2019-02-27T05:29:54.117Z,1029.39
2019-02-27T05:31:05.071Z,1029.39
2019-02-27T05:32:18.838Z,1029.4
2019-02-27T05:33:35.978Z,1029.37
2019-02-27T05:34:49.719Z,1029.37
2019-02-27T05:36:00.157Z,1029.39
2019-02-27T05:37:10.097Z,1029.4
2019-02-27T05:38:20.134Z,1029.4
2019-02-27T05:39:30.093Z,1029.42
2019-02-27T05:40:41.484Z,1029.42
2019-02-27T05:41:51.418Z,1029.42
2019-02-27T05:43:01.439Z,1029.42
2019-02-27T05:44:15.844Z,1029.42
2019-02-27T05:45:31.086Z,1029.46
2019-02-27T05:46:40.738Z,1029.43
2019-02-27T05:47:50.686Z,1029.45
2019-02-27T05:49:00.616Z,1029.48
2019-02-27T05:50:10.316Z,1029.45
2019-02-27T05:51:20.309Z,1029.44
2019-02-27T05:52:30.244Z,1029.49
2019-02-27T05:53:39.437Z,1029.46
2019-02-27T05:54:49.135Z,1029.45
2019-02-27T05:55:59.084Z,1029.46
2019-02-27T05:57:09.037Z,1029.45
2019-02-27T05:58:22.827Z,1029.43
2019-02-27T05:59:32.752Z,1029.43
2019-02-27T06:00:42.450Z,1029.42
2019-02-27T06:01:52.391Z,1029.41
2019-02-27T06:03:02.360Z,1029.39
2019-02-27T06:04:11.806Z,1029.39
2019-02-27T06:05:27.863Z,1029.39
2019-02-27T06:06:39.474Z,1029.39
2019-02-27T06:07:52.464Z,1029.38
2019-02-27T06:09:05.059Z,1029.39
2019-02-27T06:10:19.671Z,1029.41
2019-02-27T06:11:33.094Z,1029.39
2019-02-27T06:12:43.177Z,1029.36
2019-02-27T06:13:52.623Z,1029.43
2019-02-27T06:15:02.307Z,1029.36
2019-02-27T06:16:12.245Z,1029.42
2019-02-27T06:17:22.000Z,1029.43
2019-02-27T06:18:43.571Z,1029.47
2019-02-27T06:19:56.734Z,1029.4
2019-02-27T06:21:10.628Z,1029.42
2019-02-27T06:22:23.057Z,1029.4
2019-02-27T06:23:38.477Z,1029.42
2019-02-27T06:24:47.997Z,1029.33
2019-02-27T06:25:59.366Z,1029.36
2019-02-27T06:27:10.057Z,1029.39
2019-02-27T06:28:19.751Z,1029.42
2019-02-27T06:29:29.435Z,1029.39
2019-02-27T06:30:39.121Z,1029.39
2019-02-27T06:31:48.806Z,1029.33
2019-02-27T06:32:58.252Z,1029.33
2019-02-27T06:34:12.079Z,1029.31
2019-02-27T06:35:25.120Z,1029.32
2019-02-27T06:36:41.820Z,1029.3
2019-02-27T06:37:52.026Z,1029.28
2019-02-27T06:39:01.469Z,1029.31
2019-02-27T06:40:11.674Z,1029.33
2019-02-27T06:41:23.590Z,1029.31
2019-02-27T06:42:33.538Z,1029.31
2019-02-27T06:43:43.243Z,1029.29
2019-02-27T06:44:52.951Z,1029.26
2019-02-27T06:46:03.112Z,1029.23
2019-02-27T06:47:12.558Z,1029.22
2019-02-27T06:48:21.994Z,1029.26
2019-02-27T06:49:31.700Z,1029.29
2019-02-27T06:50:41.637Z,1029.25
2019-02-27T06:51:51.580Z,1029.22
2019-02-27T06:53:01.025Z,1029.23
2019-02-27T06:54:18.324Z,1029.22
2019-02-27T06:55:28.824Z,1029.17
2019-02-27T06:56:38.934Z,1029.18
2019-02-27T06:57:48.373Z,1029.23
2019-02-27T06:58:58.100Z,1029.21
2019-02-27T07:00:07.789Z,1029.22
2019-02-27T07:01:17.727Z,1029.21
2019-02-27T07:02:27.427Z,1029.18
2019-02-27T07:03:36.869Z,1029.12
2019-02-27T07:04:46.309Z,1029.14
2019-02-27T07:05:56.248Z,1029.13
2019-02-27T07:07:06.195Z,1029.11
2019-02-27T07:08:15.883Z,1029.12
2019-02-27T07:09:25.564Z,1029.13
2019-02-27T07:10:35.500Z,1029.15
2019-02-27T07:11:48.137Z,1029.17
2019-02-27T07:12:58.485Z,1029.17
2019-02-27T07:14:08.442Z,1029.17
2019-02-27T07:15:18.378Z,1029.23
2019-02-27T07:16:28.071Z,1029.2
2019-02-27T07:17:37.526Z,1029.19
2019-02-27T07:18:47.481Z,1029.2
2019-02-27T07:19:57.169Z,1029.14
2019-02-27T07:21:09.211Z,1029.11
2019-02-27T07:22:19.149Z,1029.12
2019-02-27T07:23:29.087Z,1029.19
2019-02-27T07:24:40.540Z,1029.13
2019-02-27T07:25:50.476Z,1029.11
2019-02-27T07:27:00.171Z,1029.07
2019-02-27T07:28:09.625Z,1029.08
2019-02-27T07:29:21.809Z,1029.07
2019-02-27T07:30:35.647Z,1029.05
2019-02-27T07:31:52.034Z,1029.04
2019-02-27T07:33:06.664Z,1029.07
2019-02-27T07:34:16.579Z,1029.04
2019-02-27T07:35:28.562Z,1029.05
2019-02-27T07:36:39.171Z,1029.02
2019-02-27T07:37:49.171Z,1029.02
2019-02-27T07:38:58.616Z,1029
2019-02-27T07:40:09.294Z,1029.03
2019-02-27T07:41:20.871Z,1028.94
2019-02-27T07:42:32.086Z,1028.97
2019-02-27T07:43:43.678Z,1028.97
2019-02-27T07:44:53.364Z,1028.95
2019-02-27T07:46:03.146Z,1028.97
2019-02-27T07:47:13.085Z,1028.94
2019-02-27T07:48:22.542Z,1028.95
2019-02-27T07:49:32.625Z,1028.95
2019-02-27T07:50:42.579Z,1028.95
2019-02-27T07:51:57.752Z,1028.91
2019-02-27T07:53:07.428Z,1028.88
2019-02-27T07:54:20.444Z,1028.89
2019-02-27T07:55:33.949Z,1028.92
2019-02-27T07:56:43.651Z,1028.92
2019-02-27T07:57:58.037Z,1028.96
2019-02-27T07:59:08.132Z,1028.98
2019-02-27T08:00:19.095Z,1029
2019-02-27T08:01:31.017Z,1028.97
2019-02-27T08:02:51.021Z,1028.99
2019-02-27T08:04:00.723Z,1029
2019-02-27T08:05:10.414Z,1028.96
2019-02-27T08:06:20.362Z,1028.96
2019-02-27T08:07:31.317Z,1028.96
2019-02-27T08:08:41.016Z,1028.96
2019-02-27T08:09:50.951Z,1028.94
2019-02-27T08:11:04.222Z,1028.94
2019-02-27T08:12:19.879Z,1028.97
2019-02-27T08:13:30.317Z,1028.87
2019-02-27T08:14:40.046Z,1028.87
2019-02-27T08:15:50.494Z,1028.86
2019-02-27T08:17:02.421Z,1028.86
2019-02-27T08:18:29.980Z,1028.83
2019-02-27T08:19:45.247Z,1028.86
2019-02-27T08:20:55.247Z,1028.83
2019-02-27T08:22:05.254Z,1028.84
2019-02-27T08:23:15.628Z,1028.83
2019-02-27T08:24:26.629Z,1028.83
2019-02-27T08:25:36.796Z,1028.79
2019-02-27T08:26:46.742Z,1028.8
2019-02-27T08:27:56.793Z,1028.73
2019-02-27T08:29:06.497Z,1028.75
2019-02-27T08:30:16.181Z,1028.72
2019-02-27T08:31:28.145Z,1028.69
2019-02-27T08:32:39.701Z,1028.73
2019-02-27T08:33:49.390Z,1028.73
2019-02-27T08:34:58.836Z,1028.72
2019-02-27T08:36:07.784Z,1028.7
2019-02-27T08:37:17.470Z,1028.73
2019-02-27T08:38:27.703Z,1028.64
2019-02-27T08:39:37.678Z,1028.67
2019-02-27T08:40:47.388Z,1028.6
2019-02-27T08:42:03.110Z,1028.56
2019-02-27T08:43:13.434Z,1028.53
2019-02-27T08:44:23.145Z,1028.49
2019-02-27T08:45:32.575Z,1028.45
2019-02-27T08:46:42.269Z,1028.47
2019-02-27T08:47:51.700Z,1028.5
2019-02-27T08:49:03.174Z,1028.42
2019-02-27T08:50:13.876Z,1028.43
2019-02-27T08:51:23.661Z,1028.47
2019-02-27T08:52:33.359Z,1028.43
2019-02-27T08:53:45.033Z,1028.43
2019-02-27T08:54:59.629Z,1028.4
2019-02-27T08:56:23.502Z,1028.38
2019-02-27T08:57:35.298Z,1028.33
2019-02-27T08:58:45.027Z,1028.35
2019-02-27T08:59:54.976Z,1028.36
2019-02-27T09:01:04.427Z,1028.31
2019-02-27T09:02:14.115Z,1028.3
2019-02-27T09:03:24.717Z,1028.28
2019-02-27T09:04:39.118Z,1028.23
2019-02-27T09:05:53.677Z,1028.25
2019-02-27T09:07:04.139Z,1028.17
2019-02-27T09:08:14.095Z,1028.2
2019-02-27T09:09:24.038Z,1028.22
2019-02-27T09:10:33.734Z,1028.24
2019-02-27T09:11:43.433Z,1028.23
2019-02-27T09:12:52.876Z,1028.2
2019-02-27T09:14:12.823Z,1028.2
2019-02-27T09:15:22.285Z,1028.16
2019-02-27T09:16:31.725Z,1028.12
2019-02-27T09:17:41.408Z,1028.12
2019-02-27T09:18:51.099Z,1028.1
2019-02-27T09:20:01.091Z,1028.12
2019-02-27T09:21:10.292Z,1028.09
2019-02-27T09:22:20.231Z,1028.12
2019-02-27T09:23:30.168Z,1028.08
2019-02-27T09:24:39.617Z,1028.07
2019-02-27T09:25:56.979Z,1028.04
2019-02-27T09:27:10.248Z,1028.01
2019-02-27T09:28:20.202Z,1027.96
2019-02-27T09:29:30.141Z,1027.9
2019-02-27T09:30:39.833Z,1027.87
2019-02-27T09:31:50.885Z,1027.85
2019-02-27T09:33:01.029Z,1027.8
2019-02-27T09:34:10.974Z,1027.8
2019-02-27T09:35:21.288Z,1027.84
2019-02-27T09:36:42.983Z,1027.81
2019-02-27T09:37:54.386Z,1027.86
2019-02-27T09:39:03.833Z,1027.87
2019-02-27T09:40:13.521Z,1027.78
2019-02-27T09:41:23.208Z,1027.77
2019-02-27T09:42:33.173Z,1027.74
2019-02-27T09:43:42.863Z,1027.75
2019-02-27T09:44:52.800Z,1027.79
2019-02-27T09:53:49.342Z,1027.79
2019-02-27T09:54:59.277Z,1027.81
2019-02-27T09:56:08.724Z,1027.76
2019-02-27T09:57:19.016Z,1027.79
2019-02-27T09:58:30.025Z,1027.74
2019-02-27T09:59:42.204Z,1027.72
2019-02-27T10:00:59.036Z,1027.69
2019-02-27T10:02:12.442Z,1027.67
2019-02-27T10:03:22.515Z,1027.66
2019-02-27T10:04:33.420Z,1027.64
2019-02-27T10:05:42.859Z,1027.65
2019-02-27T10:06:52.857Z,1027.62
2019-02-27T10:08:02.795Z,1027.65
2019-02-27T10:09:12.916Z,1027.57
2019-02-27T10:10:22.621Z,1027.6
2019-02-27T10:11:32.551Z,1027.58
2019-02-27T10:12:42.523Z,1027.55
2019-02-27T10:13:52.209Z,1027.51
2019-02-27T10:15:01.904Z,1027.49
2019-02-27T10:16:11.365Z,1027.51
2019-02-27T10:17:21.057Z,1027.45
2019-02-27T10:18:31.483Z,1027.46
2019-02-27T10:19:41.424Z,1027.43
2019-02-27T10:20:51.373Z,1027.39
2019-02-27T10:22:01.071Z,1027.43
2019-02-27T10:23:11.033Z,1027.39
2019-02-27T10:24:21.056Z,1027.34
2019-02-27T10:25:32.770Z,1027.38
2019-02-27T10:26:46.207Z,1027.37
2019-02-27T10:28:03.220Z,1027.37
2019-02-27T10:29:14.240Z,1027.38
2019-02-27T10:30:24.076Z,1027.31
2019-02-27T10:31:33.772Z,1027.36
2019-02-27T10:32:43.225Z,1027.31
2019-02-27T10:33:52.913Z,1027.33
2019-02-27T10:35:03.347Z,1027.34
2019-02-27T10:36:13.029Z,1027.37
2019-02-27T10:37:24.157Z,1027.38
2019-02-27T10:38:40.047Z,1027.35
2019-02-27T10:39:50.692Z,1027.35
2019-02-27T10:41:00.775Z,1027.37
2019-02-27T10:42:09.976Z,1027.35
2019-02-27T10:43:21.035Z,1027.32
2019-02-27T10:44:33.523Z,1027.26
2019-02-27T10:45:48.159Z,1027.25
2019-02-27T10:46:59.893Z,1027.29
2019-02-27T10:48:12.528Z,1027.23
2019-02-27T10:49:22.619Z,1027.25
2019-02-27T10:50:35.377Z,1027.21
2019-02-27T10:51:45.978Z,1027.17
2019-02-27T10:52:55.934Z,1027.17
2019-02-27T10:54:05.646Z,1027.14
2019-02-27T10:55:15.336Z,1027.09
2019-02-27T10:56:27.220Z,1027.09
2019-02-27T10:57:38.450Z,1027.05
2019-02-27T10:58:48.273Z,1027.01
2019-02-27T10:59:57.961Z,1026.95
2019-02-27T11:01:07.923Z,1026.98
2019-02-27T11:02:17.882Z,1026.97
2019-02-27T11:03:28.589Z,1026.9
2019-02-27T11:04:38.867Z,1026.89
2019-02-27T11:05:53.111Z,1026.86
2019-02-27T11:07:05.276Z,1026.85
2019-02-27T11:08:18.499Z,1026.82
2019-02-27T11:09:31.883Z,1026.83
2019-02-27T11:10:45.818Z,1026.8
2019-02-27T11:11:55.513Z,1026.79
2019-02-27T11:13:06.604Z,1026.72
2019-02-27T11:14:16.786Z,1026.67
2019-02-27T11:15:26.735Z,1026.71
2019-02-27T11:16:36.180Z,1026.66
2019-02-27T11:17:46.128Z,1026.64
2019-02-27T11:18:56.437Z,1026.66
2019-02-27T11:20:06.383Z,1026.56
2019-02-27T11:21:21.192Z,1026.56
2019-02-27T11:22:31.760Z,1026.53
2019-02-27T11:23:41.837Z,1026.55
2019-02-27T11:24:52.466Z,1026.57
2019-02-27T11:26:02.512Z,1026.54
2019-02-27T11:27:12.213Z,1026.47
2019-02-27T11:28:24.177Z,1026.49
2019-02-27T11:29:34.124Z,1026.5
2019-02-27T11:30:44.082Z,1026.5
2019-02-27T11:31:56.289Z,1026.44
2019-02-27T11:33:05.980Z,1026.42
2019-02-27T11:34:33.052Z,1026.38
2019-02-27T11:35:43.005Z,1026.35
2019-02-27T11:36:53.579Z,1026.32
2019-02-27T11:38:04.827Z,1026.26
2019-02-27T11:39:14.766Z,1026.24
2019-02-27T11:40:24.714Z,1026.23
2019-02-27T11:41:34.696Z,1026.18
2019-02-27T11:42:48.801Z,1026.14
2019-02-27T11:43:58.255Z,1026.12
2019-02-27T11:45:07.940Z,1026.09
2019-02-27T11:46:17.388Z,1026.05
2019-02-27T11:47:27.091Z,1026.05
2019-02-27T11:48:37.045Z,1026.07
2019-02-27T11:49:46.726Z,1026.04
2019-02-27T11:50:56.659Z,1025.98
2019-02-27T11:52:06.106Z,1025.97
2019-02-27T11:53:16.039Z,1025.94
2019-02-27T11:54:25.728Z,1025.98
2019-02-27T11:55:35.413Z,1025.92
2019-02-27T11:56:47.651Z,1025.93
2019-02-27T11:58:05.297Z,1026
2019-02-27T11:59:15.463Z,1025.9
2019-02-27T12:00:24.902Z,1025.94
2019-02-27T12:01:34.339Z,1025.82
2019-02-27T12:02:44.048Z,1025.87
2019-02-27T12:03:53.982Z,1025.84
2019-02-27T12:05:03.669Z,1025.81
2019-02-27T12:06:13.633Z,1025.74
2019-02-27T12:07:22.584Z,1025.76
2019-02-27T12:08:32.523Z,1025.7
2019-02-27T12:09:42.458Z,1025.64
2019-02-27T12:10:52.144Z,1025.69
2019-02-27T12:12:01.589Z,1025.67
2019-02-27T12:13:13.304Z,1025.64
2019-02-27T12:14:23.232Z,1025.65
2019-02-27T12:15:32.721Z,1025.67
2019-02-27T12:16:48.550Z,1025.64
2019-02-27T12:18:01.649Z,1025.64
2019-02-27T12:19:11.805Z,1025.63
2019-02-27T12:20:20.996Z,1025.58
2019-02-27T12:21:30.692Z,1025.57
2019-02-27T12:22:40.139Z,1025.53
2019-02-27T12:23:49.596Z,1025.48
2019-02-27T12:24:59.044Z,1025.48
2019-02-27T12:26:08.995Z,1025.46
2019-02-27T12:27:32.804Z,1025.44
2019-02-27T12:28:56.875Z,1025.4
2019-02-27T12:30:06.576Z,1025.34
2019-02-27T12:31:16.281Z,1025.32
2019-02-27T12:32:25.717Z,1025.27
2019-02-27T12:33:34.908Z,1025.29
2019-02-27T12:34:44.598Z,1025.25
2019-02-27T12:35:54.307Z,1025.31
2019-02-27T12:37:04.252Z,1025.27
2019-02-27T12:38:39.258Z,1025.24
2019-02-27T12:39:51.594Z,1025.25
2019-02-27T12:41:01.318Z,1025.26
2019-02-27T12:42:11.264Z,1025.26
2019-02-27T12:43:20.712Z,1025.18
2019-02-27T12:44:30.398Z,1025.21
2019-02-27T12:45:42.204Z,1025.18
2019-02-27T12:46:51.901Z,1025.19
2019-02-27T12:48:01.846Z,1025.18
2019-02-27T12:49:13.721Z,1025.15
2019-02-27T12:50:30.792Z,1025.15
2019-02-27T12:51:40.271Z,1025.11
2019-02-27T12:52:50.017Z,1025.08
2019-02-27T12:53:59.961Z,1025.06
2019-02-27T12:55:09.641Z,1025.01
2019-02-27T12:56:20.986Z,1025.02
2019-02-27T12:57:30.689Z,1025.04
2019-02-27T12:58:40.377Z,1025.03
2019-02-27T12:59:50.065Z,1024.96
2019-02-27T13:01:00.011Z,1025.02
2019-02-27T13:02:10.881Z,1025
2019-02-27T13:03:26.458Z,1025.01
2019-02-27T13:04:35.924Z,1024.97
2019-02-27T13:05:45.661Z,1024.95
2019-02-27T13:06:55.608Z,1024.99
2019-02-27T13:08:05.598Z,1024.89
2019-02-27T13:09:21.351Z,1024.9
2019-02-27T13:10:33.984Z,1024.86
2019-02-27T13:11:44.960Z,1024.85
2019-02-27T13:12:54.983Z,1024.82
2019-02-27T13:14:04.465Z,1024.76
2019-02-27T13:15:14.147Z,1024.77
2019-02-27T13:16:23.837Z,1024.71
2019-02-27T13:17:33.020Z,1024.72
2019-02-27T13:18:42.710Z,1024.71
2019-02-27T13:19:54.142Z,1024.73
2019-02-27T13:21:05.735Z,1024.7
2019-02-27T13:22:20.877Z,1024.65
2019-02-27T13:23:36.298Z,1024.62
2019-02-27T13:24:50.823Z,1024.6
2019-02-27T13:26:01.129Z,1024.56
2019-02-27T13:27:10.640Z,1024.6
2019-02-27T13:28:20.377Z,1024.56
2019-02-27T13:29:30.090Z,1024.52
2019-02-27T13:30:41.563Z,1024.52
2019-02-27T13:31:52.164Z,1024.54
2019-02-27T13:33:03.947Z,1024.49
2019-02-27T13:34:14.557Z,1024.44
2019-02-27T13:35:24.563Z,1024.46
2019-02-27T13:36:36.096Z,1024.41
2019-02-27T13:37:47.257Z,1024.42
2019-02-27T13:38:56.963Z,1024.35
2019-02-27T13:40:07.682Z,1024.32
2019-02-27T13:41:17.814Z,1024.26
2019-02-27T13:42:28.781Z,1024.23
2019-02-27T13:43:38.222Z,1024.23
2019-02-27T13:44:47.421Z,1024.17
2019-02-27T13:45:57.366Z,1024.17
2019-02-27T13:47:07.136Z,1024.14
2019-02-27T13:48:16.831Z,1024.12
2019-02-27T13:49:26.774Z,1024.12
2019-02-27T13:50:36.211Z,1024.08
2019-02-27T13:51:46.150Z,1024.02
2019-02-27T13:52:56.104Z,1024
2019-02-27T13:54:05.540Z,1024.01
2019-02-27T13:55:14.736Z,1023.98
2019-02-27T13:56:25.089Z,1023.94
2019-02-27T13:57:37.399Z,1023.88
2019-02-27T13:58:47.113Z,1023.84
2019-02-27T13:59:57.118Z,1023.84
2019-02-27T14:01:07.060Z,1023.83
2019-02-27T14:02:17.375Z,1023.78
2019-02-27T14:03:27.394Z,1023.76
2019-02-27T14:04:37.941Z,1023.71
2019-02-27T14:05:47.388Z,1023.71
2019-02-27T14:06:57.325Z,1023.71
2019-02-27T14:08:06.783Z,1023.67
2019-02-27T14:09:16.747Z,1023.6
2019-02-27T14:10:26.463Z,1023.59
2019-02-27T14:11:36.404Z,1023.58
2019-02-27T14:12:45.884Z,1023.55
2019-02-27T14:13:55.577Z,1023.56
2019-02-27T14:15:05.832Z,1023.56
2019-02-27T14:16:15.788Z,1023.52
2019-02-27T14:17:25.484Z,1023.54
2019-02-27T14:18:35.178Z,1023.47
2019-02-27T14:19:44.887Z,1023.48
2019-02-27T14:20:55.769Z,1023.43
2019-02-27T14:22:08.773Z,1023.39
2019-02-27T14:23:18.459Z,1023.35
2019-02-27T14:24:28.146Z,1023.36
2019-02-27T14:25:38.786Z,1023.33
2019-02-27T14:26:48.476Z,1023.36
2019-02-27T14:27:57.925Z,1023.32
2019-02-27T14:29:07.869Z,1023.3
2019-02-27T14:30:17.568Z,1023.3